sensor_id;sensor_type;location;lat;lon;timestamp;P1;durP1;ratioP1;P2;durP2;ratioP2
76063;SDS011;64762;52.006;8.424;2024-03-25T00:00:57;8.47;;;1.50;;
76063;SDS011;64762;52.006;8.424;2024-03-25T00:03:23;9.03;;;1.87;;
76063;SDS011;64762;52.006;8.424;2024-03-25T00:05:48;12.20;;;1.73;;
76063;SDS011;64762;52.006;8.424;2024-03-25T00:08:13;15.67;;;2.77;;
76063;SDS011;64762;52.006;8.424;2024-03-25T00:10:39;9.43;;;2.50;;
76063;SDS011;64762;52.006;8.424;2024-03-25T00:13:04;7.03;;;2.17;;
76063;SDS011;64762;52.006;8.424;2024-03-25T00:15:29;8.60;;;1.50;;
76063;SDS011;64762;52.006;8.424;2024-03-25T00:17:55;12.25;;;1.92;;
76063;SDS011;64762;52.006;8.424;2024-03-25T00:20:20;9.98;;;1.60;;
76063;SDS011;64762;52.006;8.424;2024-03-25T00:22:46;11.73;;;1.90;;
76063;SDS011;64762;52.006;8.424;2024-03-25T00:25:11;12.27;;;1.80;;
76063;SDS011;64762;52.006;8.424;2024-03-25T00:27:36;12.83;;;2.03;;
76063;SDS011;64762;52.006;8.424;2024-03-25T00:30:02;12.37;;;2.17;;
76063;SDS011;64762;52.006;8.424;2024-03-25T00:32:27;10.10;;;1.85;;
76063;SDS011;64762;52.006;8.424;2024-03-25T00:34:53;13.90;;;2.30;;
76063;SDS011;64762;52.006;8.424;2024-03-25T00:37:18;11.00;;;1.93;;
76063;SDS011;64762;52.006;8.424;2024-03-25T00:39:43;12.93;;;2.10;;
76063;SDS011;64762;52.006;8.424;2024-03-25T00:42:09;7.20;;;1.67;;
76063;SDS011;64762;52.006;8.424;2024-03-25T00:44:34;9.07;;;2.00;;
76063;SDS011;64762;52.006;8.424;2024-03-25T00:46:59;13.10;;;1.93;;
76063;SDS011;64762;52.006;8.424;2024-03-25T00:49:25;11.50;;;2.10;;
76063;SDS011;64762;52.006;8.424;2024-03-25T00:51:50;9.50;;;2.30;;
76063;SDS011;64762;52.006;8.424;2024-03-25T00:54:15;11.03;;;2.80;;
76063;SDS011;64762;52.006;8.424;2024-03-25T00:56:41;8.47;;;2.10;;
76063;SDS011;64762;52.006;8.424;2024-03-25T00:59:06;8.20;;;1.73;;
76063;SDS011;64762;52.006;8.424;2024-03-25T01:01:32;5.23;;;1.70;;
76063;SDS011;64762;52.006;8.424;2024-03-25T01:03:58;8.43;;;1.65;;
76063;SDS011;64762;52.006;8.424;2024-03-25T01:06:23;11.68;;;2.10;;
76063;SDS011;64762;52.006;8.424;2024-03-25T01:08:49;7.60;;;1.63;;
76063;SDS011;64762;52.006;8.424;2024-03-25T01:11:15;11.32;;;2.10;;
76063;SDS011;64762;52.006;8.424;2024-03-25T01:13:40;10.10;;;2.50;;
76063;SDS011;64762;52.006;8.424;2024-03-25T01:16:06;13.25;;;2.67;;
76063;SDS011;64762;52.006;8.424;2024-03-25T01:18:32;7.35;;;2.10;;
76063;SDS011;64762;52.006;8.424;2024-03-25T01:20:57;8.85;;;1.77;;
76063;SDS011;64762;52.006;8.424;2024-03-25T01:23:23;10.77;;;2.40;;
76063;SDS011;64762;52.006;8.424;2024-03-25T01:25:48;8.77;;;2.50;;
76063;SDS011;64762;52.006;8.424;2024-03-25T01:28:13;10.67;;;2.10;;
76063;SDS011;64762;52.006;8.424;2024-03-25T01:30:39;9.63;;;2.30;;
76063;SDS011;64762;52.006;8.424;2024-03-25T01:33:04;19.23;;;3.17;;
76063;SDS011;64762;52.006;8.424;2024-03-25T01:35:30;8.82;;;2.45;;
76063;SDS011;64762;52.006;8.424;2024-03-25T01:37:55;13.63;;;1.98;;
76063;SDS011;64762;52.006;8.424;2024-03-25T01:40:21;7.77;;;2.27;;
76063;SDS011;64762;52.006;8.424;2024-03-25T01:42:56;10.13;;;2.20;;
76063;SDS011;64762;52.006;8.424;2024-03-25T01:45:21;10.60;;;2.13;;
76063;SDS011;64762;52.006;8.424;2024-03-25T01:47:46;12.33;;;2.80;;
76063;SDS011;64762;52.006;8.424;2024-03-25T01:50:12;9.43;;;2.30;;
76063;SDS011;64762;52.006;8.424;2024-03-25T01:52:37;9.10;;;1.90;;
76063;SDS011;64762;52.006;8.424;2024-03-25T01:55:03;8.77;;;2.58;;
76063;SDS011;64762;52.006;8.424;2024-03-25T01:57:30;11.93;;;2.28;;
76063;SDS011;64762;52.006;8.424;2024-03-25T01:59:55;9.27;;;1.70;;
76063;SDS011;64762;52.006;8.424;2024-03-25T02:02:20;12.37;;;2.37;;
76063;SDS011;64762;52.006;8.424;2024-03-25T02:04:45;9.93;;;2.00;;
76063;SDS011;64762;52.006;8.424;2024-03-25T02:07:11;15.83;;;2.43;;
76063;SDS011;64762;52.006;8.424;2024-03-25T02:09:37;14.05;;;2.35;;
76063;SDS011;64762;52.006;8.424;2024-03-25T02:12:03;14.93;;;2.53;;
76063;SDS011;64762;52.006;8.424;2024-03-25T02:14:29;9.68;;;2.67;;
76063;SDS011;64762;52.006;8.424;2024-03-25T02:16:54;9.63;;;2.70;;
76063;SDS011;64762;52.006;8.424;2024-03-25T02:19:20;9.90;;;2.00;;
76063;SDS011;64762;52.006;8.424;2024-03-25T02:21:47;9.63;;;2.20;;
76063;SDS011;64762;52.006;8.424;2024-03-25T02:24:12;10.73;;;2.73;;
76063;SDS011;64762;52.006;8.424;2024-03-25T02:26:39;14.85;;;2.97;;
76063;SDS011;64762;52.006;8.424;2024-03-25T02:29:04;9.57;;;1.63;;
76063;SDS011;64762;52.006;8.424;2024-03-25T02:31:29;8.43;;;2.40;;
76063;SDS011;64762;52.006;8.424;2024-03-25T02:33:54;13.87;;;2.60;;
76063;SDS011;64762;52.006;8.424;2024-03-25T02:36:20;8.83;;;1.97;;
76063;SDS011;64762;52.006;8.424;2024-03-25T02:38:45;13.07;;;2.23;;
76063;SDS011;64762;52.006;8.424;2024-03-25T02:41:10;11.60;;;2.47;;
76063;SDS011;64762;52.006;8.424;2024-03-25T02:43:36;14.53;;;3.30;;
76063;SDS011;64762;52.006;8.424;2024-03-25T02:46:01;6.57;;;2.15;;
76063;SDS011;64762;52.006;8.424;2024-03-25T02:48:26;12.83;;;2.20;;
76063;SDS011;64762;52.006;8.424;2024-03-25T02:50:52;10.40;;;2.07;;
76063;SDS011;64762;52.006;8.424;2024-03-25T02:53:17;10.47;;;2.37;;
76063;SDS011;64762;52.006;8.424;2024-03-25T02:55:42;13.17;;;2.07;;
76063;SDS011;64762;52.006;8.424;2024-03-25T02:58:07;15.73;;;2.80;;
76063;SDS011;64762;52.006;8.424;2024-03-25T03:00:33;14.95;;;2.15;;
76063;SDS011;64762;52.006;8.424;2024-03-25T03:02:59;10.57;;;2.10;;
76063;SDS011;64762;52.006;8.424;2024-03-25T03:05:24;4.93;;;1.80;;
76063;SDS011;64762;52.006;8.424;2024-03-25T03:07:49;13.77;;;2.57;;
76063;SDS011;64762;52.006;8.424;2024-03-25T03:10:15;11.93;;;2.57;;
76063;SDS011;64762;52.006;8.424;2024-03-25T03:12:41;5.82;;;1.60;;
76063;SDS011;64762;52.006;8.424;2024-03-25T03:15:06;9.63;;;2.13;;
76063;SDS011;64762;52.006;8.424;2024-03-25T03:17:32;9.10;;;2.05;;
76063;SDS011;64762;52.006;8.424;2024-03-25T03:19:57;15.57;;;2.37;;
76063;SDS011;64762;52.006;8.424;2024-03-25T03:22:22;7.90;;;1.90;;
76063;SDS011;64762;52.006;8.424;2024-03-25T03:24:47;10.47;;;2.00;;
76063;SDS011;64762;52.006;8.424;2024-03-25T03:27:13;9.57;;;2.03;;
76063;SDS011;64762;52.006;8.424;2024-03-25T03:29:38;8.90;;;2.00;;
76063;SDS011;64762;52.006;8.424;2024-03-25T03:32:03;13.23;;;1.85;;
76063;SDS011;64762;52.006;8.424;2024-03-25T03:34:29;9.87;;;2.07;;
76063;SDS011;64762;52.006;8.424;2024-03-25T03:36:54;9.17;;;1.63;;
76063;SDS011;64762;52.006;8.424;2024-03-25T03:39:19;13.07;;;2.40;;
76063;SDS011;64762;52.006;8.424;2024-03-25T03:41:45;9.57;;;2.07;;
76063;SDS011;64762;52.006;8.424;2024-03-25T03:44:10;10.53;;;2.30;;
76063;SDS011;64762;52.006;8.424;2024-03-25T03:46:37;15.75;;;2.22;;
76063;SDS011;64762;52.006;8.424;2024-03-25T03:49:02;10.10;;;2.07;;
76063;SDS011;64762;52.006;8.424;2024-03-25T03:51:27;14.27;;;2.17;;
76063;SDS011;64762;52.006;8.424;2024-03-25T03:53:53;11.37;;;2.00;;
76063;SDS011;64762;52.006;8.424;2024-03-25T03:56:18;11.53;;;1.63;;
76063;SDS011;64762;52.006;8.424;2024-03-25T03:58:43;11.30;;;2.10;;
76063;SDS011;64762;52.006;8.424;2024-03-25T04:01:15;8.53;;;1.93;;
76063;SDS011;64762;52.006;8.424;2024-03-25T04:03:41;15.80;;;2.17;;
76063;SDS011;64762;52.006;8.424;2024-03-25T04:06:12;11.80;;;2.37;;
76063;SDS011;64762;52.006;8.424;2024-03-25T04:08:38;8.65;;;2.35;;
76063;SDS011;64762;52.006;8.424;2024-03-25T04:11:04;11.77;;;2.15;;
76063;SDS011;64762;52.006;8.424;2024-03-25T04:13:31;12.57;;;2.50;;
76063;SDS011;64762;52.006;8.424;2024-03-25T04:15:59;17.55;;;2.33;;
76063;SDS011;64762;52.006;8.424;2024-03-25T04:18:27;11.00;;;2.15;;
76063;SDS011;64762;52.006;8.424;2024-03-25T04:20:53;15.40;;;2.63;;
76063;SDS011;64762;52.006;8.424;2024-03-25T04:23:18;11.32;;;2.85;;
76063;SDS011;64762;52.006;8.424;2024-03-25T04:25:43;12.80;;;2.37;;
76063;SDS011;64762;52.006;8.424;2024-03-25T04:28:09;7.43;;;2.00;;
76063;SDS011;64762;52.006;8.424;2024-03-25T04:30:34;14.87;;;2.37;;
76063;SDS011;64762;52.006;8.424;2024-03-25T04:33:00;11.30;;;2.63;;
76063;SDS011;64762;52.006;8.424;2024-03-25T04:35:25;13.15;;;2.00;;
76063;SDS011;64762;52.006;8.424;2024-03-25T04:37:50;8.90;;;1.97;;
76063;SDS011;64762;52.006;8.424;2024-03-25T04:40:16;10.37;;;2.43;;
76063;SDS011;64762;52.006;8.424;2024-03-25T04:42:43;9.07;;;2.10;;
76063;SDS011;64762;52.006;8.424;2024-03-25T04:45:09;13.47;;;2.70;;
76063;SDS011;64762;52.006;8.424;2024-03-25T04:47:34;12.03;;;2.47;;
76063;SDS011;64762;52.006;8.424;2024-03-25T04:50:00;11.20;;;2.40;;
76063;SDS011;64762;52.006;8.424;2024-03-25T04:52:25;7.80;;;2.15;;
76063;SDS011;64762;52.006;8.424;2024-03-25T04:54:50;15.00;;;2.37;;
76063;SDS011;64762;52.006;8.424;2024-03-25T04:57:16;15.87;;;2.57;;
76063;SDS011;64762;52.006;8.424;2024-03-25T04:59:41;15.60;;;2.43;;
76063;SDS011;64762;52.006;8.424;2024-03-25T05:02:06;15.90;;;2.40;;
76063;SDS011;64762;52.006;8.424;2024-03-25T05:04:32;13.18;;;2.05;;
76063;SDS011;64762;52.006;8.424;2024-03-25T05:06:57;16.37;;;2.60;;
76063;SDS011;64762;52.006;8.424;2024-03-25T05:09:22;7.47;;;2.00;;
76063;SDS011;64762;52.006;8.424;2024-03-25T05:11:48;15.13;;;2.67;;
76063;SDS011;64762;52.006;8.424;2024-03-25T05:14:13;14.70;;;2.00;;
76063;SDS011;64762;52.006;8.424;2024-03-25T05:16:38;19.57;;;3.40;;
76063;SDS011;64762;52.006;8.424;2024-03-25T05:19:04;8.23;;;2.00;;
76063;SDS011;64762;52.006;8.424;2024-03-25T05:21:32;13.73;;;2.53;;
76063;SDS011;64762;52.006;8.424;2024-03-25T05:23:57;8.10;;;2.08;;
76063;SDS011;64762;52.006;8.424;2024-03-25T05:26:23;11.23;;;1.85;;
76063;SDS011;64762;52.006;8.424;2024-03-25T05:28:55;11.57;;;4.03;;
76063;SDS011;64762;52.006;8.424;2024-03-25T05:31:21;9.68;;;2.03;;
76063;SDS011;64762;52.006;8.424;2024-03-25T05:33:46;11.93;;;1.90;;
76063;SDS011;64762;52.006;8.424;2024-03-25T05:36:12;10.38;;;2.40;;
76063;SDS011;64762;52.006;8.424;2024-03-25T05:38:37;13.13;;;2.53;;
76063;SDS011;64762;52.006;8.424;2024-03-25T05:41:03;11.63;;;2.47;;
76063;SDS011;64762;52.006;8.424;2024-03-25T05:43:29;7.30;;;1.73;;
76063;SDS011;64762;52.006;8.424;2024-03-25T05:45:54;11.13;;;2.20;;
76063;SDS011;64762;52.006;8.424;2024-03-25T05:48:20;11.23;;;2.33;;
76063;SDS011;64762;52.006;8.424;2024-03-25T05:50:46;13.18;;;2.10;;
76063;SDS011;64762;52.006;8.424;2024-03-25T05:53:11;11.02;;;2.20;;
76063;SDS011;64762;52.006;8.424;2024-03-25T05:55:38;8.05;;;2.28;;
76063;SDS011;64762;52.006;8.424;2024-03-25T05:58:03;13.27;;;2.35;;
76063;SDS011;64762;52.006;8.424;2024-03-25T06:00:35;11.32;;;1.98;;
76063;SDS011;64762;52.006;8.424;2024-03-25T06:03:01;16.67;;;2.35;;
76063;SDS011;64762;52.006;8.424;2024-03-25T06:05:26;6.87;;;2.00;;
76063;SDS011;64762;52.006;8.424;2024-03-25T06:07:51;11.60;;;2.50;;
76063;SDS011;64762;52.006;8.424;2024-03-25T06:10:17;15.70;;;3.50;;
76063;SDS011;64762;52.006;8.424;2024-03-25T06:12:42;9.47;;;2.30;;
76063;SDS011;64762;52.006;8.424;2024-03-25T06:15:07;10.27;;;2.50;;
76063;SDS011;64762;52.006;8.424;2024-03-25T06:17:33;11.20;;;2.03;;
76063;SDS011;64762;52.006;8.424;2024-03-25T06:19:58;13.30;;;2.17;;
76063;SDS011;64762;52.006;8.424;2024-03-25T06:22:23;17.03;;;2.60;;
76063;SDS011;64762;52.006;8.424;2024-03-25T06:24:49;12.27;;;2.50;;
76063;SDS011;64762;52.006;8.424;2024-03-25T06:27:15;11.30;;;2.80;;
76063;SDS011;64762;52.006;8.424;2024-03-25T06:29:41;11.13;;;3.42;;
76063;SDS011;64762;52.006;8.424;2024-03-25T06:32:06;9.60;;;3.45;;
76063;SDS011;64762;52.006;8.424;2024-03-25T06:34:50;7.28;;;3.17;;
76063;SDS011;64762;52.006;8.424;2024-03-25T06:37:17;11.40;;;3.20;;
76063;SDS011;64762;52.006;8.424;2024-03-25T06:39:42;15.10;;;2.92;;
76063;SDS011;64762;52.006;8.424;2024-03-25T06:42:07;11.33;;;2.43;;
76063;SDS011;64762;52.006;8.424;2024-03-25T06:44:34;11.90;;;2.87;;
76063;SDS011;64762;52.006;8.424;2024-03-25T06:46:59;14.32;;;2.97;;
76063;SDS011;64762;52.006;8.424;2024-03-25T06:49:24;13.57;;;2.67;;
76063;SDS011;64762;52.006;8.424;2024-03-25T06:51:49;13.67;;;3.20;;
76063;SDS011;64762;52.006;8.424;2024-03-25T06:54:15;10.40;;;2.77;;
76063;SDS011;64762;52.006;8.424;2024-03-25T06:56:40;18.97;;;3.43;;
76063;SDS011;64762;52.006;8.424;2024-03-25T06:59:06;12.70;;;2.92;;
76063;SDS011;64762;52.006;8.424;2024-03-25T07:01:32;6.30;;;2.40;;
76063;SDS011;64762;52.006;8.424;2024-03-25T07:03:57;8.93;;;3.17;;
76063;SDS011;64762;52.006;8.424;2024-03-25T07:06:22;12.90;;;2.97;;
76063;SDS011;64762;52.006;8.424;2024-03-25T07:08:48;16.35;;;2.90;;
76063;SDS011;64762;52.006;8.424;2024-03-25T07:11:13;19.90;;;4.27;;
76063;SDS011;64762;52.006;8.424;2024-03-25T07:13:39;11.23;;;2.83;;
76063;SDS011;64762;52.006;8.424;2024-03-25T07:16:04;18.13;;;3.33;;
76063;SDS011;64762;52.006;8.424;2024-03-25T07:18:29;17.30;;;3.15;;
76063;SDS011;64762;52.006;8.424;2024-03-25T07:20:55;18.70;;;3.60;;
76063;SDS011;64762;52.006;8.424;2024-03-25T07:23:20;12.03;;;3.77;;
76063;SDS011;64762;52.006;8.424;2024-03-25T07:25:45;16.57;;;2.80;;
76063;SDS011;64762;52.006;8.424;2024-03-25T07:28:11;15.17;;;3.03;;
76063;SDS011;64762;52.006;8.424;2024-03-25T07:30:36;14.20;;;3.17;;
76063;SDS011;64762;52.006;8.424;2024-03-25T07:33:01;14.00;;;2.88;;
76063;SDS011;64762;52.006;8.424;2024-03-25T07:35:27;12.00;;;2.80;;
76063;SDS011;64762;52.006;8.424;2024-03-25T07:37:52;14.43;;;3.47;;
76063;SDS011;64762;52.006;8.424;2024-03-25T07:40:18;16.07;;;3.27;;
76063;SDS011;64762;52.006;8.424;2024-03-25T07:42:43;14.82;;;3.45;;
76063;SDS011;64762;52.006;8.424;2024-03-25T07:45:09;10.27;;;2.73;;
76063;SDS011;64762;52.006;8.424;2024-03-25T07:47:34;9.73;;;3.38;;
76063;SDS011;64762;52.006;8.424;2024-03-25T07:50:00;13.50;;;3.35;;
76063;SDS011;64762;52.006;8.424;2024-03-25T07:52:25;16.20;;;3.55;;
76063;SDS011;64762;52.006;8.424;2024-03-25T07:54:52;12.40;;;3.20;;
76063;SDS011;64762;52.006;8.424;2024-03-25T07:57:17;13.20;;;2.80;;
76063;SDS011;64762;52.006;8.424;2024-03-25T07:59:43;9.52;;;3.17;;
76063;SDS011;64762;52.006;8.424;2024-03-25T08:02:08;11.27;;;3.37;;
76063;SDS011;64762;52.006;8.424;2024-03-25T08:04:33;15.97;;;3.03;;
76063;SDS011;64762;52.006;8.424;2024-03-25T08:06:59;13.60;;;3.60;;
76063;SDS011;64762;52.006;8.424;2024-03-25T08:09:24;15.07;;;3.33;;
76063;SDS011;64762;52.006;8.424;2024-03-25T08:11:49;11.93;;;3.60;;
76063;SDS011;64762;52.006;8.424;2024-03-25T08:14:14;18.40;;;3.83;;
76063;SDS011;64762;52.006;8.424;2024-03-25T08:16:40;14.32;;;3.78;;
76063;SDS011;64762;52.006;8.424;2024-03-25T08:19:05;15.37;;;4.53;;
76063;SDS011;64762;52.006;8.424;2024-03-25T08:21:31;13.73;;;3.43;;
76063;SDS011;64762;52.006;8.424;2024-03-25T08:23:56;21.02;;;3.83;;
76063;SDS011;64762;52.006;8.424;2024-03-25T08:26:22;16.03;;;4.30;;
76063;SDS011;64762;52.006;8.424;2024-03-25T08:28:47;15.87;;;3.73;;
76063;SDS011;64762;52.006;8.424;2024-03-25T08:31:14;14.82;;;4.20;;
76063;SDS011;64762;52.006;8.424;2024-03-25T08:33:39;11.25;;;3.42;;
76063;SDS011;64762;52.006;8.424;2024-03-25T08:36:04;21.23;;;4.93;;
76063;SDS011;64762;52.006;8.424;2024-03-25T08:38:30;17.53;;;4.00;;
76063;SDS011;64762;52.006;8.424;2024-03-25T08:40:55;16.40;;;4.33;;
76063;SDS011;64762;52.006;8.424;2024-03-25T08:43:20;21.63;;;4.70;;
76063;SDS011;64762;52.006;8.424;2024-03-25T08:45:46;17.40;;;4.60;;
76063;SDS011;64762;52.006;8.424;2024-03-25T08:48:11;13.35;;;3.65;;
76063;SDS011;64762;52.006;8.424;2024-03-25T08:50:37;11.52;;;3.60;;
76063;SDS011;64762;52.006;8.424;2024-03-25T08:53:02;13.13;;;3.88;;
76063;SDS011;64762;52.006;8.424;2024-03-25T08:55:28;15.50;;;3.80;;
76063;SDS011;64762;52.006;8.424;2024-03-25T08:57:54;11.55;;;3.75;;
76063;SDS011;64762;52.006;8.424;2024-03-25T09:00:19;16.03;;;3.40;;
76063;SDS011;64762;52.006;8.424;2024-03-25T09:02:44;10.30;;;3.53;;
76063;SDS011;64762;52.006;8.424;2024-03-25T09:05:09;16.83;;;4.20;;
76063;SDS011;64762;52.006;8.424;2024-03-25T09:07:35;23.13;;;4.00;;
76063;SDS011;64762;52.006;8.424;2024-03-25T09:10:01;12.48;;;4.28;;
76063;SDS011;64762;52.006;8.424;2024-03-25T09:13:04;28.88;;;4.75;;
76063;SDS011;64762;52.006;8.424;2024-03-25T09:15:30;14.60;;;4.05;;
76063;SDS011;64762;52.006;8.424;2024-03-25T09:17:55;13.43;;;4.30;;
76063;SDS011;64762;52.006;8.424;2024-03-25T09:20:21;17.40;;;3.92;;
76063;SDS011;64762;52.006;8.424;2024-03-25T09:22:46;14.98;;;3.10;;
76063;SDS011;64762;52.006;8.424;2024-03-25T09:25:13;10.75;;;3.15;;
76063;SDS011;64762;52.006;8.424;2024-03-25T09:27:39;17.90;;;3.80;;
76063;SDS011;64762;52.006;8.424;2024-03-25T09:30:05;14.60;;;4.22;;
76063;SDS011;64762;52.006;8.424;2024-03-25T09:32:31;10.82;;;3.08;;
76063;SDS011;64762;52.006;8.424;2024-03-25T09:34:56;6.80;;;2.60;;
76063;SDS011;64762;52.006;8.424;2024-03-25T09:39:20;7.72;;;2.10;;
76063;SDS011;64762;52.006;8.424;2024-03-25T09:41:45;12.50;;;2.50;;
76063;SDS011;64762;52.006;8.424;2024-03-25T09:44:12;9.30;;;1.95;;
76063;SDS011;64762;52.006;8.424;2024-03-25T09:46:37;11.50;;;1.70;;
76063;SDS011;64762;52.006;8.424;2024-03-25T09:49:03;5.17;;;1.53;;
76063;SDS011;64762;52.006;8.424;2024-03-25T09:51:30;11.73;;;2.50;;
76063;SDS011;64762;52.006;8.424;2024-03-25T09:53:56;6.32;;;2.30;;
76063;SDS011;64762;52.006;8.424;2024-03-25T09:56:21;8.47;;;2.20;;
76063;SDS011;64762;52.006;8.424;2024-03-25T09:58:47;7.63;;;2.43;;
76063;SDS011;64762;52.006;8.424;2024-03-25T10:01:12;8.80;;;2.40;;
76063;SDS011;64762;52.006;8.424;2024-03-25T10:03:37;13.60;;;2.67;;
76063;SDS011;64762;52.006;8.424;2024-03-25T10:06:03;10.27;;;2.90;;
76063;SDS011;64762;52.006;8.424;2024-03-25T10:08:29;12.55;;;3.08;;
76063;SDS011;64762;52.006;8.424;2024-03-25T10:10:56;7.50;;;2.75;;
76063;SDS011;64762;52.006;8.424;2024-03-25T10:13:23;7.25;;;2.60;;
76063;SDS011;64762;52.006;8.424;2024-03-25T10:15:48;17.40;;;3.30;;
76063;SDS011;64762;52.006;8.424;2024-03-25T10:18:14;13.75;;;3.08;;
76063;SDS011;64762;52.006;8.424;2024-03-25T10:20:47;9.37;;;2.63;;
76063;SDS011;64762;52.006;8.424;2024-03-25T10:23:13;11.32;;;2.65;;
76063;SDS011;64762;52.006;8.424;2024-03-25T10:25:38;15.97;;;4.17;;
76063;SDS011;64762;52.006;8.424;2024-03-25T10:28:04;15.25;;;3.08;;
76063;SDS011;64762;52.006;8.424;2024-03-25T10:30:30;13.82;;;2.67;;
76063;SDS011;64762;52.006;8.424;2024-03-25T10:32:59;9.17;;;3.00;;
76063;SDS011;64762;52.006;8.424;2024-03-25T10:35:28;9.68;;;2.65;;
76063;SDS011;64762;52.006;8.424;2024-03-25T10:37:56;11.90;;;2.60;;
76063;SDS011;64762;52.006;8.424;2024-03-25T10:40:29;10.50;;;2.83;;
76063;SDS011;64762;52.006;8.424;2024-03-25T10:45:29;13.13;;;2.55;;
76063;SDS011;64762;52.006;8.424;2024-03-25T10:47:57;9.05;;;2.40;;
76063;SDS011;64762;52.006;8.424;2024-03-25T10:50:23;13.95;;;2.00;;
76063;SDS011;64762;52.006;8.424;2024-03-25T10:52:52;9.20;;;2.28;;
76063;SDS011;64762;52.006;8.424;2024-03-25T10:55:18;12.30;;;2.85;;
76063;SDS011;64762;52.006;8.424;2024-03-25T10:57:45;8.90;;;2.65;;
76063;SDS011;64762;52.006;8.424;2024-03-25T11:00:11;17.63;;;2.50;;
76063;SDS011;64762;52.006;8.424;2024-03-25T11:02:39;9.02;;;2.40;;
76063;SDS011;64762;52.006;8.424;2024-03-25T11:05:06;8.43;;;2.50;;
76063;SDS011;64762;52.006;8.424;2024-03-25T11:07:32;10.15;;;2.25;;
76063;SDS011;64762;52.006;8.424;2024-03-25T11:10:05;14.43;;;2.38;;
76063;SDS011;64762;52.006;8.424;2024-03-25T11:12:37;7.57;;;2.08;;
76063;SDS011;64762;52.006;8.424;2024-03-25T11:15:04;9.75;;;1.92;;
76063;SDS011;64762;52.006;8.424;2024-03-25T11:17:30;5.75;;;1.33;;
76063;SDS011;64762;52.006;8.424;2024-03-25T11:20:12;8.38;;;1.70;;
76063;SDS011;64762;52.006;8.424;2024-03-25T11:22:51;7.85;;;1.90;;
76063;SDS011;64762;52.006;8.424;2024-03-25T11:25:17;6.68;;;2.28;;
76063;SDS011;64762;52.006;8.424;2024-03-25T11:27:45;6.50;;;1.75;;
76063;SDS011;64762;52.006;8.424;2024-03-25T11:30:11;11.27;;;2.40;;
76063;SDS011;64762;52.006;8.424;2024-03-25T11:32:43;6.43;;;2.22;;
76063;SDS011;64762;52.006;8.424;2024-03-25T11:35:09;8.48;;;1.95;;
76063;SDS011;64762;52.006;8.424;2024-03-25T11:37:39;9.73;;;2.58;;
76063;SDS011;64762;52.006;8.424;2024-03-25T11:40:08;9.52;;;2.45;;
76063;SDS011;64762;52.006;8.424;2024-03-25T11:42:37;10.40;;;2.50;;
76063;SDS011;64762;52.006;8.424;2024-03-25T11:45:16;12.30;;;2.63;;
76063;SDS011;64762;52.006;8.424;2024-03-25T11:47:45;10.00;;;2.35;;
76063;SDS011;64762;52.006;8.424;2024-03-25T11:50:20;7.57;;;2.00;;
76063;SDS011;64762;52.006;8.424;2024-03-25T11:52:45;8.75;;;2.20;;
76063;SDS011;64762;52.006;8.424;2024-03-25T11:55:11;8.75;;;2.20;;
76063;SDS011;64762;52.006;8.424;2024-03-25T11:57:41;7.90;;;1.98;;
76063;SDS011;64762;52.006;8.424;2024-03-25T12:00:07;6.75;;;1.77;;
76063;SDS011;64762;52.006;8.424;2024-03-25T12:02:35;8.48;;;2.30;;
76063;SDS011;64762;52.006;8.424;2024-03-25T12:05:01;13.30;;;2.25;;
76063;SDS011;64762;52.006;8.424;2024-03-25T12:07:26;7.07;;;2.23;;
76063;SDS011;64762;52.006;8.424;2024-03-25T12:09:52;6.03;;;1.97;;
76063;SDS011;64762;52.006;8.424;2024-03-25T12:12:36;3.60;;;1.70;;
76063;SDS011;64762;52.006;8.424;2024-03-25T12:15:05;7.85;;;1.90;;
76063;SDS011;64762;52.006;8.424;2024-03-25T12:17:32;8.38;;;1.58;;
76063;SDS011;64762;52.006;8.424;2024-03-25T12:19:59;8.00;;;2.00;;
76063;SDS011;64762;52.006;8.424;2024-03-25T12:22:25;7.55;;;1.77;;
76063;SDS011;64762;52.006;8.424;2024-03-25T12:24:51;6.80;;;1.60;;
76063;SDS011;64762;52.006;8.424;2024-03-25T12:27:16;6.27;;;1.43;;
76063;SDS011;64762;52.006;8.424;2024-03-25T12:29:42;4.85;;;1.40;;
76063;SDS011;64762;52.006;8.424;2024-03-25T12:32:09;8.40;;;1.37;;
76063;SDS011;64762;52.006;8.424;2024-03-25T12:34:34;4.13;;;1.20;;
76063;SDS011;64762;52.006;8.424;2024-03-25T12:37:00;4.57;;;1.33;;
76063;SDS011;64762;52.006;8.424;2024-03-25T12:39:26;7.22;;;1.33;;
76063;SDS011;64762;52.006;8.424;2024-03-25T12:41:52;5.93;;;1.52;;
76063;SDS011;64762;52.006;8.424;2024-03-25T12:44:18;7.07;;;1.40;;
76063;SDS011;64762;52.006;8.424;2024-03-25T12:46:43;5.67;;;1.43;;
76063;SDS011;64762;52.006;8.424;2024-03-25T12:49:09;6.15;;;1.75;;
76063;SDS011;64762;52.006;8.424;2024-03-25T12:51:34;7.83;;;1.93;;
76063;SDS011;64762;52.006;8.424;2024-03-25T12:54:00;5.40;;;1.70;;
76063;SDS011;64762;52.006;8.424;2024-03-25T12:56:25;12.93;;;2.10;;
76063;SDS011;64762;52.006;8.424;2024-03-25T12:58:50;5.83;;;1.60;;
76063;SDS011;64762;52.006;8.424;2024-03-25T13:01:16;7.15;;;1.83;;
76063;SDS011;64762;52.006;8.424;2024-03-25T13:03:42;8.57;;;1.73;;
76063;SDS011;64762;52.006;8.424;2024-03-25T13:06:07;5.27;;;1.13;;
76063;SDS011;64762;52.006;8.424;2024-03-25T13:08:33;6.23;;;1.67;;
76063;SDS011;64762;52.006;8.424;2024-03-25T13:10:58;9.53;;;1.70;;
76063;SDS011;64762;52.006;8.424;2024-03-25T13:13:24;7.03;;;1.73;;
76063;SDS011;64762;52.006;8.424;2024-03-25T13:15:49;4.50;;;1.35;;
76063;SDS011;64762;52.006;8.424;2024-03-25T13:18:14;8.53;;;1.97;;
76063;SDS011;64762;52.006;8.424;2024-03-25T13:20:39;6.50;;;1.73;;
76063;SDS011;64762;52.006;8.424;2024-03-25T13:23:07;9.17;;;1.60;;
76063;SDS011;64762;52.006;8.424;2024-03-25T13:25:32;9.25;;;1.70;;
76063;SDS011;64762;52.006;8.424;2024-03-25T13:27:58;7.95;;;1.40;;
76063;SDS011;64762;52.006;8.424;2024-03-25T13:30:23;9.13;;;1.27;;
76063;SDS011;64762;52.006;8.424;2024-03-25T13:32:50;10.50;;;1.55;;
76063;SDS011;64762;52.006;8.424;2024-03-25T13:35:15;4.77;;;1.50;;
76063;SDS011;64762;52.006;8.424;2024-03-25T13:37:41;6.43;;;1.37;;
76063;SDS011;64762;52.006;8.424;2024-03-25T13:40:06;14.03;;;2.27;;
76063;SDS011;64762;52.006;8.424;2024-03-25T13:42:32;9.98;;;1.40;;
76063;SDS011;64762;52.006;8.424;2024-03-25T13:44:58;7.23;;;1.60;;
76063;SDS011;64762;52.006;8.424;2024-03-25T13:47:24;8.25;;;1.90;;
76063;SDS011;64762;52.006;8.424;2024-03-25T13:49:49;7.35;;;1.50;;
76063;SDS011;64762;52.006;8.424;2024-03-25T13:52:14;6.27;;;1.40;;
76063;SDS011;64762;52.006;8.424;2024-03-25T13:54:40;4.80;;;1.50;;
76063;SDS011;64762;52.006;8.424;2024-03-25T13:57:05;7.13;;;1.80;;
76063;SDS011;64762;52.006;8.424;2024-03-25T13:59:30;3.45;;;1.20;;
76063;SDS011;64762;52.006;8.424;2024-03-25T14:01:56;8.83;;;1.80;;
76063;SDS011;64762;52.006;8.424;2024-03-25T14:04:21;4.53;;;1.10;;
76063;SDS011;64762;52.006;8.424;2024-03-25T14:06:46;4.20;;;1.23;;
76063;SDS011;64762;52.006;8.424;2024-03-25T14:09:23;6.80;;;1.77;;
76063;SDS011;64762;52.006;8.424;2024-03-25T14:11:49;9.73;;;1.77;;
76063;SDS011;64762;52.006;8.424;2024-03-25T14:14:14;7.93;;;1.57;;
76063;SDS011;64762;52.006;8.424;2024-03-25T14:16:40;5.50;;;1.20;;
76063;SDS011;64762;52.006;8.424;2024-03-25T14:19:05;6.07;;;1.87;;
76063;SDS011;64762;52.006;8.424;2024-03-25T14:21:30;5.63;;;1.20;;
76063;SDS011;64762;52.006;8.424;2024-03-25T14:23:56;6.03;;;1.10;;
76063;SDS011;64762;52.006;8.424;2024-03-25T14:26:21;4.90;;;1.70;;
76063;SDS011;64762;52.006;8.424;2024-03-25T14:28:46;3.80;;;1.10;;
76063;SDS011;64762;52.006;8.424;2024-03-25T14:31:12;8.27;;;1.47;;
76063;SDS011;64762;52.006;8.424;2024-03-25T14:33:37;9.57;;;1.37;;
76063;SDS011;64762;52.006;8.424;2024-03-25T14:36:02;5.87;;;1.20;;
76063;SDS011;64762;52.006;8.424;2024-03-25T14:38:28;10.60;;;1.48;;